Time;durP1;ratioP1;P1;durP2;ratioP2;P2;SDS_P1;SDS_P2;PMS_P1;PMS_P2;Temp;Humidity;BMP_temperature;BMP_pressure;BME280_temperature;BME280_humidity;BME280_pressure;Samples;Min_cycle;Max_cycle;Signal;HPM_P1;HPM_P2
2021/12/20 00:01:02;;;;;;;8.38;2.80;;;;;;;-4.91;92.33;96722.16;4841433;29;20057;-67
2021/12/20 00:03:28;;;;;;;8.23;2.58;;;;;;;-4.94;91.38;96717.13;4858352;29;20050;-67
2021/12/20 00:05:54;;;;;;;8.35;2.67;;;;;;;-4.80;90.70;96737.06;4856723;29;20117;-67
2021/12/20 00:08:19;;;;;;;7.07;2.33;;;;;;;-4.85;89.81;96739.25;4858039;29;20049;-67
2021/12/20 00:10:45;;;;;;;8.60;3.17;;;;;;;-4.92;89.04;96732.81;4856878;29;20068;-67
2021/12/20 00:13:11;;;;;;;12.65;3.10;;;;;;;-4.79;90.27;96744.03;4856797;29;20148;-67
2021/12/20 00:15:37;;;;;;;8.93;3.13;;;;;;;-5.00;89.59;96719.47;4857964;29;20100;-67
2021/12/20 00:18:03;;;;;;;8.77;2.75;;;;;;;-5.05;88.59;96721.63;4841124;29;20080;-67
2021/12/20 00:20:28;;;;;;;8.85;2.47;;;;;;;-4.89;89.08;96753.66;4847150;29;20152;-67
2021/12/20 00:22:54;;;;;;;7.32;2.25;;;;;;;-5.11;87.89;96715.91;4823476;29;20427;-68
2021/12/20 00:25:20;;;;;;;8.52;2.20;;;;;;;-4.91;87.41;96755.56;4823074;29;20452;-68
2021/12/20 00:27:46;;;;;;;7.90;2.40;;;;;;;-5.11;86.97;96734.34;4822905;29;20460;-65
2021/12/20 00:30:12;;;;;;;7.18;2.13;;;;;;;-4.91;87.05;96768.72;4838213;29;20140;-67
2021/12/20 00:32:39;;;;;;;7.20;2.10;;;;;;;-4.82;88.18;96770.63;4822787;29;20062;-68
2021/12/20 00:35:06;;;;;;;7.68;2.67;;;;;;;-4.95;86.98;96765.50;4838057;29;20050;-65
2021/12/20 00:40:23;;;;;;;7.80;2.55;;;;;;;-4.98;86.52;96765.75;4840223;29;20069;-66
2021/12/20 00:42:55;;;;;;;8.45;2.10;;;;;;;-4.97;86.93;96762.19;4838630;29;20054;-67
2021/12/20 00:45:24;;;;;;;7.07;2.03;;;;;;;-5.09;86.44;96779.81;4823048;29;20088;-66
2021/12/20 00:47:51;;;;;;;7.72;2.35;;;;;;;-5.15;87.65;96775.06;4838702;29;20058;-68
2021/12/20 00:50:19;;;;;;;7.03;2.00;;;;;;;-5.20;88.07;96782.47;4838540;29;20080;-67
2021/12/20 00:52:45;;;;;;;7.60;2.42;;;;;;;-5.26;88.46;96783.00;4839260;29;20118;-66
2021/12/20 00:55:15;;;;;;;7.95;2.40;;;;;;;-5.48;88.67;96764.63;4846568;29;20053;-67
2021/12/20 00:57:43;;;;;;;7.35;2.20;;;;;;;-5.23;89.76;96793.28;4843659;29;20088;-67
2021/12/20 01:00:10;;;;;;;7.07;2.00;;;;;;;-5.36;89.50;96782.06;4842148;29;20062;-65
2021/12/20 01:02:35;;;;;;;8.55;2.20;;;;;;;-5.39;90.96;96798.09;4841841;29;20061;-67
2021/12/20 01:05:02;;;;;;;6.30;1.85;;;;;;;-5.39;91.16;96808.63;4841993;29;20057;-66
2021/12/20 01:07:29;;;;;;;9.70;2.25;;;;;;;-5.44;92.71;96809.00;4843392;29;20045;-67
2021/12/20 01:09:58;;;;;;;7.05;1.92;;;;;;;-5.54;93.43;96797.53;4843110;29;20499;-67
2021/12/20 01:12:30;;;;;;;4.97;1.30;;;;;;;-5.44;92.69;96805.53;4842015;29;20066;-68
2021/12/20 01:14:59;;;;;;;6.93;2.05;;;;;;;-5.44;92.81;96818.69;4841352;29;20524;-67
2021/12/20 01:17:25;;;;;;;7.75;1.88;;;;;;;-5.43;93.41;96823.81;4840926;29;20062;-65
2021/12/20 01:19:51;;;;;;;7.00;1.92;;;;;;;-5.37;92.77;96822.50;4842417;29;20061;-67
2021/12/20 01:22:17;;;;;;;6.15;1.98;;;;;;;-5.47;91.77;96832.94;4841059;29;20061;-67
2021/12/20 01:24:43;;;;;;;8.25;2.30;;;;;;;-5.55;93.13;96830.06;4840884;29;20543;-70
2021/12/20 01:27:09;;;;;;;7.88;2.17;;;;;;;-5.53;92.90;96822.03;4840846;29;20068;-66
2021/12/20 01:29:34;;;;;;;6.22;1.95;;;;;;;-5.57;91.56;96824.91;4855962;29;20069;-67
2021/12/20 01:32:00;;;;;;;7.45;1.83;;;;;;;-5.53;91.27;96829.94;4840773;29;20053;-66
2021/12/20 01:34:26;;;;;;;6.13;1.70;;;;;;;-5.51;90.08;96830.66;4840814;29;20115;-67
2021/12/20 01:36:52;;;;;;;6.30;1.63;;;;;;;-5.54;89.03;96849.31;4840820;29;20078;-66
2021/12/20 01:39:18;;;;;;;6.95;1.90;;;;;;;-5.64;89.65;96841.31;4840899;29;20177;-66
2021/12/20 01:41:44;;;;;;;7.18;2.05;;;;;;;-5.59;89.17;96847.91;4842250;29;20070;-66
2021/12/20 01:44:13;;;;;;;6.72;1.90;;;;;;;-5.67;89.38;96847.63;4840965;29;20145;-66
2021/12/20 01:46:39;;;;;;;6.03;1.92;;;;;;;-5.61;87.78;96852.44;4840400;29;20057;-67
2021/12/20 01:49:09;;;;;;;5.07;1.52;;;;;;;-5.73;88.57;96828.88;4841990;29;20478;-67
2021/12/20 01:54:04;;;;;;;7.68;1.20;;;;;;;-5.74;88.33;96857.00;4842065;29;20094;-68
2021/12/20 01:56:33;;;;;;;5.88;1.67;;;;;;;-5.77;88.71;96870.38;4840506;29;20081;-68
2021/12/20 01:59:03;;;;;;;5.78;1.58;;;;;;;-5.85;88.52;96864.84;4841680;29;20174;-66
2021/12/20 02:01:29;;;;;;;5.63;1.63;;;;;;;-5.93;89.80;96864.66;4840386;29;20118;-65
2021/12/20 02:03:59;;;;;;;5.72;1.38;;;;;;;-5.79;89.94;96879.34;4841549;29;20256;-66
2021/12/20 02:08:52;;;;;;;5.75;1.67;;;;;;;-5.89;86.59;96873.94;4840295;29;20081;-66
2021/12/20 02:11:19;;;;;;;6.38;2.05;;;;;;;-5.86;87.71;96882.44;4825041;29;20391;-67
2021/12/20 02:13:45;;;;;;;6.50;1.60;;;;;;;-5.94;87.00;96890.13;4840166;29;20556;-67
2021/12/20 02:16:11;;;;;;;6.38;1.88;;;;;;;-5.96;86.74;96892.03;4840276;29;20134;-67
2021/12/20 02:18:38;;;;;;;5.90;1.52;;;;;;;-5.94;86.97;96897.16;4840235;29;20205;-66
2021/12/20 02:21:05;;;;;;;9.73;1.90;;;;;;;-6.26;87.12;96849.66;4839659;29;20093;-66
2021/12/20 02:23:30;;;;;;;4.72;1.17;;;;;;;-6.23;86.97;96866.03;4839879;29;20093;-66
2021/12/20 02:25:59;;;;;;;7.45;1.63;;;;;;;-5.92;87.11;96911.06;4841056;29;20487;-67
2021/12/20 02:28:25;;;;;;;7.70;1.80;;;;;;;-6.09;86.99;96915.78;4840363;29;20065;-67
2021/12/20 02:38:51;;;;;;;7.05;1.70;;;;;;;-6.19;88.25;96920.06;4854919;29;20117;-66
2021/12/20 02:41:18;;;;;;;5.57;1.35;;;;;;;-6.20;89.10;96938.59;4841033;29;20264;-66
2021/12/20 02:43:59;;;;;;;5.60;1.63;;;;;;;-6.42;90.08;96905.19;4824237;29;20116;-68
2021/12/20 02:49:05;;;;;;;7.93;1.70;;;;;;;-6.25;90.95;96951.22;4839267;29;20046;-67
2021/12/20 02:51:31;;;;;;;5.50;1.60;;;;;;;-6.30;91.93;96948.94;4840730;29;20122;-68
2021/12/20 02:54:01;;;;;;;3.90;1.02;;;;;;;-6.29;92.46;96955.03;4840526;29;20061;-66
2021/12/20 02:56:26;;;;;;;7.28;2.00;;;;;;;-6.43;93.23;96937.66;4839151;29;20532;-66
2021/12/20 02:58:53;;;;;;;7.68;1.73;;;;;;;-6.38;93.99;96957.38;4840603;29;20165;-66
2021/12/20 03:01:20;;;;;;;6.82;1.83;;;;;;;-6.35;93.96;96969.47;4824007;29;20069;-67
2021/12/20 03:03:47;;;;;;;6.00;1.58;;;;;;;-6.36;94.13;96954.63;4839268;29;20110;-68
2021/12/20 03:06:19;;;;;;;4.13;1.15;;;;;;;-6.31;94.42;96957.78;4839175;29;20480;-66
2021/12/20 03:08:48;;;;;;;9.30;1.85;;;;;;;-6.30;94.18;96975.22;4840328;29;20057;-67
2021/12/20 03:11:15;;;;;;;6.60;1.70;;;;;;;-6.26;93.37;96974.03;4838921;29;20182;-67
2021/12/20 03:13:44;;;;;;;7.07;1.95;;;;;;;-6.34;92.21;96976.41;4854060;29;20545;-68
2021/12/20 03:16:10;;;;;;;6.55;1.67;;;;;;;-6.47;92.16;96946.69;4838842;29;20057;-67
2021/12/20 03:18:35;;;;;;;7.47;1.67;;;;;;;-6.32;92.29;96983.22;4822564;29;20439;-68
2021/12/20 03:21:01;;;;;;;6.72;1.90;;;;;;;-6.37;91.67;96976.63;4841755;29;20086;-68
2021/12/20 03:23:27;;;;;;;6.22;1.70;;;;;;;-6.27;91.72;96992.56;4857280;29;20536;-68
2021/12/20 03:25:53;;;;;;;7.38;2.00;;;;;;;-6.44;92.36;96967.50;4858506;29;20061;-67
2021/12/20 03:28:20;;;;;;;7.65;1.63;;;;;;;-6.31;92.27;96989.31;4857113;29;20514;-67
2021/12/20 03:30:46;;;;;;;4.70;1.40;;;;;;;-6.42;91.17;96973.50;4841591;29;20072;-68
2021/12/20 03:33:12;;;;;;;8.73;1.98;;;;;;;-6.33;92.25;97001.72;4857281;29;20092;-67
2021/12/20 03:35:38;;;;;;;7.93;2.15;;;;;;;-6.43;93.08;97003.38;4841938;29;20057;-67
2021/12/20 03:38:04;;;;;;;8.40;1.80;;;;;;;-6.83;92.93;96958.97;4858613;29;20059;-67
2021/12/20 03:40:30;;;;;;;6.20;1.50;;;;;;;-6.59;94.07;96996.56;4857112;29;20409;-66
2021/12/20 03:42:56;;;;;;;8.52;1.90;;;;;;;-6.54;92.66;97004.13;4858275;29;20125;-68
2021/12/20 03:45:22;;;;;;;5.43;1.50;;;;;;;-6.45;92.15;97013.97;4841322;29;20061;-68
2021/12/20 03:47:47;;;;;;;8.57;1.80;;;;;;;-6.52;91.82;97011.91;4841522;29;20053;-68
2021/12/20 03:50:14;;;;;;;6.32;1.58;;;;;;;-6.67;92.02;96993.66;4858189;29;20053;-67
2021/12/20 03:52:41;;;;;;;6.63;1.90;;;;;;;-6.50;92.46;97025.78;4858013;29;20533;-68
2021/12/20 03:55:12;;;;;;;5.85;1.45;;;;;;;-6.72;91.05;97006.31;4857081;29;20143;-67
2021/12/20 03:57:38;;;;;;;6.57;1.77;;;;;;;-6.65;89.05;97031.19;4858455;29;20057;-68
2021/12/20 04:00:08;;;;;;;7.10;1.60;;;;;;;-6.58;87.68;97028.94;4841125;29;20060;-68
2021/12/20 04:02:43;;;;;;;6.30;1.63;;;;;;;-6.78;88.44;97022.47;4848993;29;20427;-69
2021/12/20 04:05:11;;;;;;;8.27;1.95;;;;;;;-6.82;86.36;97005.28;4830133;29;20604;-66
2021/12/20 04:07:38;;;;;;;7.63;2.03;;;;;;;-6.77;86.38;97050.41;4842577;29;21230;-68
2021/12/20 04:10:04;;;;;;;9.95;2.17;;;;;;;-7.20;86.61;97000.94;4851468;29;20125;-67
2021/12/20 04:12:30;;;;;;;3.55;0.75;;;;;;;-6.95;85.84;97051.72;4844835;29;20057;-71
2021/12/20 04:14:56;;;;;;;6.13;1.60;;;;;;;-7.04;86.32;97054.03;4835576;29;20434;-66
2021/12/20 04:17:21;;;;;;;7.13;2.03;;;;;;;-7.08;86.36;97063.06;4861160;29;20135;-67
2021/12/20 04:19:47;;;;;;;5.80;1.60;;;;;;;-7.25;86.68;97045.03;4836649;29;20148;-74
2021/12/20 04:22:15;;;;;;;7.28;1.90;;;;;;;-7.14;87.90;97071.38;4850621;29;20054;-67
2021/12/20 04:24:41;;;;;;;6.85;1.63;;;;;;;-7.36;88.02;97048.38;4851103;29;20399;-68
2021/12/20 04:27:07;;;;;;;6.05;1.75;;;;;;;-7.29;89.09;97070.63;4854657;29;20057;-66
2021/12/20 04:29:33;;;;;;;5.50;1.40;;;;;;;-7.41;90.25;97076.72;4837015;29;20097;-68
2021/12/20 04:31:59;;;;;;;12.95;1.70;;;;;;;-7.38;90.60;97087.03;4841381;29;20050;-68
2021/12/20 04:34:25;;;;;;;7.32;2.25;;;;;;;-7.50;91.31;97061.59;4857206;29;20395;-68
2021/12/20 04:36:52;;;;;;;6.38;1.90;;;;;;;-7.43;91.31;97083.00;4825367;29;20056;-67
2021/12/20 04:39:21;;;;;;;7.22;1.73;;;;;;;-7.43;90.44;97098.75;4841980;29;20065;-68
2021/12/20 04:41:47;;;;;;;5.28;1.60;;;;;;;-7.46;89.69;97098.97;4856839;29;20061;-66
2021/12/20 04:44:12;;;;;;;6.40;1.80;;;;;;;-7.48;90.64;97100.84;4841495;29;20379;-68
2021/12/20 04:46:38;;;;;;;6.95;1.92;;;;;;;-7.54;89.46;97104.72;4826184;29;20085;-66
2021/12/20 04:49:04;;;;;;;5.80;1.58;;;;;;;-7.79;88.61;97061.78;4856450;29;20049;-68
2021/12/20 04:51:30;;;;;;;7.57;1.88;;;;;;;-7.48;88.26;97122.69;4825671;29;20076;-67
2021/12/20 04:53:56;;;;;;;6.78;1.70;;;;;;;-7.43;88.65;97125.00;4842410;29;20065;-68
2021/12/20 04:56:22;;;;;;;7.53;1.50;;;;;;;-7.56;88.47;97086.47;4871925;29;20230;-68
2021/12/20 04:58:48;;;;;;;6.85;1.98;;;;;;;-7.46;87.75;97114.69;4841044;29;20125;-67
2021/12/20 05:01:14;;;;;;;11.70;2.08;;;;;;;-7.55;88.55;97098.63;4825351;29;20064;-68
2021/12/20 05:03:41;;;;;;;5.57;1.58;;;;;;;-7.46;87.52;97127.81;4825718;29;20530;-68
2021/12/20 05:06:07;;;;;;;9.27;1.98;;;;;;;-7.55;88.76;97122.25;4825793;29;20061;-68
2021/12/20 05:08:36;;;;;;;6.28;1.80;;;;;;;-7.46;88.66;97135.69;4856527;29;20057;-68
2021/12/20 05:11:05;;;;;;;6.90;1.67;;;;;;;-7.62;88.23;97125.38;4841073;29;20057;-68
2021/12/20 05:13:32;;;;;;;5.80;1.67;;;;;;;-7.91;88.31;97085.34;4857181;29;20513;-68
2021/12/20 05:15:58;;;;;;;7.85;2.42;;;;;;;-7.70;88.54;97127.69;4826003;29;20498;-67
2021/12/20 05:18:25;;;;;;;7.70;2.38;;;;;;;-7.50;88.16;97160.44;4840625;29;20069;-67
2021/12/20 05:20:52;;;;;;;6.75;2.00;;;;;;;-7.52;87.00;97160.56;4840397;29;20053;-68
2021/12/20 05:23:19;;;;;;;5.70;1.42;;;;;;;-7.58;85.79;97159.16;4841602;29;20061;-68
2021/12/20 05:25:49;;;;;;;4.97;1.52;;;;;;;-7.61;85.69;97164.59;4871254;29;20430;-67
2021/12/20 05:28:18;;;;;;;7.55;1.85;;;;;;;-7.76;86.88;97153.34;4826013;29;20107;-67
2021/12/20 05:30:57;;;;;;;7.57;2.22;;;;;;;-7.93;86.78;97137.00;4826175;29;20058;-67
2021/12/20 05:33:23;;;;;;;5.90;1.67;;;;;;;-7.71;86.71;97179.28;4842249;29;20086;-67
2021/12/20 05:35:52;;;;;;;6.15;1.30;;;;;;;-7.83;86.81;97178.28;4871330;29;20499;-68
2021/12/20 05:38:20;;;;;;;7.00;1.77;;;;;;;-7.76;86.29;97191.84;4825887;29;20062;-67
2021/12/20 05:40:46;;;;;;;6.70;1.88;;;;;;;-7.91;86.23;97193.66;4824644;29;20156;-67
2021/12/20 05:43:12;;;;;;;7.53;1.90;;;;;;;-7.89;86.35;97190.97;4871287;29;20181;-67
2021/12/20 05:45:38;;;;;;;6.88;1.70;;;;;;;-7.84;86.92;97200.19;4840587;29;20054;-68
2021/12/20 05:48:04;;;;;;;7.18;1.85;;;;;;;-7.89;86.97;97204.06;4840548;29;20583;-68
2021/12/20 05:50:30;;;;;;;6.57;1.77;;;;;;;-7.87;86.48;97204.78;4840303;29;20064;-68
2021/12/20 05:52:56;;;;;;;7.00;2.20;;;;;;;-7.98;86.43;97196.78;4824647;29;20061;-67
2021/12/20 05:55:22;;;;;;;10.77;2.83;;;;;;;-7.96;87.54;97215.88;4856035;29;20057;-67
2021/12/20 05:57:48;;;;;;;7.20;1.77;;;;;;;-7.92;88.57;97227.84;4840405;29;20174;-67
2021/12/20 06:00:18;;;;;;;3.97;1.05;;;;;;;-7.97;86.08;97195.81;4856334;29;20062;-67
2021/12/20 06:02:47;;;;;;;6.82;1.80;;;;;;;-7.85;86.71;97234.41;4840320;29;20201;-67
2021/12/20 06:05:12;;;;;;;7.45;1.67;;;;;;;-7.87;86.63;97237.09;4840016;29;20060;-67
2021/12/20 06:07:41;;;;;;;5.25;1.25;;;;;;;-8.10;86.54;97186.13;4824709;29;20062;-67
2021/12/20 06:10:10;;;;;;;8.18;2.38;;;;;;;-7.86;86.62;97232.69;4824849;29;20490;-67
2021/12/20 06:12:36;;;;;;;7.97;1.98;;;;;;;-7.77;86.89;97247.84;4870690;29;20297;-67
2021/12/20 06:15:05;;;;;;;9.05;3.10;;;;;;;-7.91;86.29;97240.00;4839904;29;20065;-67
2021/12/20 06:17:31;;;;;;;7.70;1.95;;;;;;;-7.74;86.33;97252.06;4825518;29;20574;-68
2021/12/20 06:19:57;;;;;;;6.85;1.75;;;;;;;-7.69;85.71;97255.22;4840183;29;20265;-67
2021/12/20 06:22:23;;;;;;;7.72;2.35;;;;;;;-7.75;85.71;97256.47;4840205;29;20085;-67
2021/12/20 06:24:49;;;;;;;8.57;2.28;;;;;;;-7.71;86.61;97263.22;4839389;29;20456;-68
2021/12/20 06:27:15;;;;;;;6.68;1.70;;;;;;;-7.59;87.08;97270.28;4855086;29;20530;-67
2021/12/20 06:29:40;;;;;;;11.10;1.40;;;;;;;-7.56;85.89;97258.75;4839664;29;20053;-68
2021/12/20 06:32:06;;;;;;;8.75;2.20;;;;;;;-7.48;87.94;97277.47;4824434;29;20157;-67
2021/12/20 06:34:32;;;;;;;10.65;2.22;;;;;;;-7.46;87.88;97293.09;4839757;29;20089;-68
2021/12/20 06:36:58;;;;;;;7.35;2.47;;;;;;;-7.44;85.77;97286.81;4839355;29;20431;-67
2021/12/20 06:39:24;;;;;;;7.13;1.70;;;;;;;-7.46;86.82;97303.59;4839226;29;20442;-68
2021/12/20 06:41:51;;;;;;;7.90;2.00;;;;;;;-7.50;86.91;97307.34;4870245;29;20081;-67
2021/12/20 06:44:18;;;;;;;6.75;1.70;;;;;;;-7.59;86.15;97278.16;4854434;29;20519;-67
2021/12/20 06:46:44;;;;;;;8.82;2.58;;;;;;;-7.50;84.47;97307.34;4839522;29;20114;-67
2021/12/20 06:49:12;;;;;;;9.00;2.33;;;;;;;-7.64;85.32;97306.47;4839851;29;20057;-67
2021/12/20 06:51:41;;;;;;;7.47;2.28;;;;;;;-7.63;84.04;97312.56;4854683;29;20061;-66
2021/12/20 06:54:08;;;;;;;9.95;2.83;;;;;;;-7.80;85.06;97297.88;4839273;29;20050;-68
2021/12/20 06:56:35;;;;;;;7.43;1.88;;;;;;;-7.60;85.01;97320.22;4839324;29;20149;-67
2021/12/20 06:59:03;;;;;;;8.38;2.58;;;;;;;-7.57;84.60;97328.75;4840735;29;20050;-67
2021/12/20 07:01:29;;;;;;;7.68;2.33;;;;;;;-7.58;84.63;97331.44;4838886;29;20065;-67
2021/12/20 07:03:56;;;;;;;8.75;1.98;;;;;;;-7.67;84.84;97334.66;4823863;29;20554;-67
2021/12/20 07:06:24;;;;;;;7.07;2.05;;;;;;;-7.62;85.62;97335.22;4823993;29;20065;-67
2021/12/20 07:08:50;;;;;;;8.93;2.20;;;;;;;-8.03;84.54;97289.66;4838951;29;20149;-68
2021/12/20 07:11:16;;;;;;;11.88;2.03;;;;;;;-7.72;84.35;97334.09;4823739;29;20077;-67
2021/12/20 07:13:42;;;;;;;5.72;1.63;;;;;;;-7.86;84.42;97327.94;4838949;29;20085;-67
2021/12/20 07:16:08;;;;;;;10.73;2.55;;;;;;;-7.77;85.21;97352.75;4853892;29;20145;-67
2021/12/20 07:18:35;;;;;;;6.82;1.90;;;;;;;-7.61;84.88;97363.13;4838851;29;20511;-67
2021/12/20 07:21:01;;;;;;;7.90;2.20;;;;;;;-7.76;84.03;97367.53;4838629;29;20068;-67
2021/12/20 07:23:27;;;;;;;9.50;2.50;;;;;;;-7.74;84.43;97370.91;4838833;29;20069;-67
2021/12/20 07:25:53;;;;;;;6.88;2.15;;;;;;;-7.84;84.44;97368.00;4823744;29;20517;-67
2021/12/20 07:28:18;;;;;;;9.65;2.75;;;;;;;-7.81;84.34;97367.00;4839060;29;20061;-67
2021/12/20 07:30:45;;;;;;;6.50;1.77;;;;;;;-7.93;83.42;97352.00;4824235;29;20118;-67
2021/12/20 07:33:11;;;;;;;9.75;2.92;;;;;;;-7.74;83.74;97381.41;4869562;29;20069;-67
2021/12/20 07:35:37;;;;;;;9.32;2.30;;;;;;;-7.70;82.96;97387.31;4854192;29;20399;-67
2021/12/20 07:38:04;;;;;;;8.10;1.95;;;;;;;-7.74;83.30;97388.44;4824195;29;20058;-68
2021/12/20 07:40:30;;;;;;;9.25;2.35;;;;;;;-7.74;83.39;97389.28;4823953;29;20137;-67
2021/12/20 07:42:56;;;;;;;8.80;2.65;;;;;;;-7.76;84.28;97386.72;4853718;29;20061;-67
2021/12/20 07:45:22;;;;;;;10.40;2.92;;;;;;;-7.84;83.96;97398.63;4838607;29;20072;-67
2021/12/20 07:47:49;;;;;;;11.52;2.13;;;;;;;-7.77;83.07;97406.03;4839057;29;20087;-67
2021/12/20 07:50:17;;;;;;;7.95;1.73;;;;;;;-7.94;83.40;97377.38;4840192;29;20061;-67
2021/12/20 07:52:43;;;;;;;8.75;2.40;;;;;;;-7.95;84.55;97385.34;4838499;29;20069;-67
2021/12/20 07:55:09;;;;;;;8.07;2.28;;;;;;;-7.81;83.73;97414.19;4838466;29;20054;-67
2021/12/20 07:57:37;;;;;;;9.02;2.40;;;;;;;-7.73;84.14;97417.19;4823441;29;20062;-66
2021/12/20 08:00:08;;;;;;;9.25;2.65;;;;;;;-7.92;84.83;97427.09;4840088;29;20456;-67
2021/12/20 08:02:39;;;;;;;8.70;3.20;;;;;;;-7.86;85.21;97427.59;4853393;29;20137;-67
2021/12/20 08:05:05;;;;;;;9.98;2.80;;;;;;;-7.84;85.41;97422.22;4853989;29;20132;-67
2021/12/20 08:07:31;;;;;;;8.13;2.65;;;;;;;-7.81;85.10;97427.28;4823688;29;20061;-67
2021/12/20 08:09:57;;;;;;;8.27;2.13;;;;;;;-7.74;85.18;97426.00;4838817;29;20064;-68
2021/12/20 08:12:23;;;;;;;7.45;2.10;;;;;;;-7.53;85.00;97434.34;4838841;29;20065;-67
2021/12/20 08:14:48;;;;;;;6.18;1.73;;;;;;;-7.47;84.15;97433.09;4853427;29;20049;-67
2021/12/20 08:17:14;;;;;;;10.52;3.22;;;;;;;-7.31;83.95;97444.34;4839432;29;20049;-67
2021/12/20 08:19:40;;;;;;;10.77;2.92;;;;;;;-7.20;84.01;97438.41;4853895;29;20061;-67
2021/12/20 08:22:06;;;;;;;8.60;2.28;;;;;;;-7.34;81.47;97436.66;4840003;29;20451;-67
2021/12/20 08:24:32;;;;;;;9.63;2.75;;;;;;;-7.40;80.58;97445.75;4839304;29;20502;-67
2021/12/20 08:26:58;;;;;;;6.78;1.88;;;;;;;-7.31;81.32;97439.94;4854030;29;20073;-67
2021/12/20 08:29:24;;;;;;;10.50;2.83;;;;;;;-7.03;81.53;97465.28;4822901;29;20503;-67
2021/12/20 08:31:50;;;;;;;8.85;2.90;;;;;;;-7.08;78.59;97462.13;4839739;29;20503;-67
2021/12/20 08:34:17;;;;;;;7.22;2.28;;;;;;;-7.06;78.59;97457.63;4823329;29;20084;-68
2021/12/20 08:36:43;;;;;;;9.68;3.03;;;;;;;-6.84;77.20;97459.75;4822839;29;20476;-67
2021/12/20 08:39:09;;;;;;;7.15;2.10;;;;;;;-6.63;75.77;97456.66;4823237;29;20122;-67
2021/12/20 08:41:34;;;;;;;8.68;2.28;;;;;;;-6.21;75.06;97463.53;4838583;29;20089;-67
2021/12/20 08:44:00;;;;;;;8.40;2.78;;;;;;;-6.22;73.68;97456.56;4823696;29;20093;-67
2021/12/20 08:46:26;;;;;;;9.02;2.45;;;;;;;-5.85;72.30;97475.13;4838380;29;20061;-68
2021/12/20 08:48:56;;;;;;;7.10;1.92;;;;;;;-6.04;71.91;97464.19;4838132;29;20054;-67
2021/12/20 08:51:25;;;;;;;7.72;2.47;;;;;;;-6.23;72.87;97478.56;4869354;29;20089;-67
2021/12/20 08:53:51;;;;;;;10.40;2.97;;;;;;;-6.22;73.42;97469.72;4868978;29;20070;-67
2021/12/20 08:56:20;;;;;;;13.73;2.33;;;;;;;-5.88;71.41;97491.16;4868910;29;20073;-67
2021/12/20 08:58:46;;;;;;;9.35;2.78;;;;;;;-6.69;73.16;97447.41;4853490;29;20160;-67
2021/12/20 09:01:12;;;;;;;8.75;2.58;;;;;;;-6.63;73.20;97481.16;4853476;29;20140;-67
2021/12/20 09:03:39;;;;;;;9.27;2.42;;;;;;;-6.36;74.13;97501.31;4869443;29;20083;-67
2021/12/20 09:06:07;;;;;;;7.20;1.98;;;;;;;-6.26;72.64;97502.41;4838385;29;20058;-67
2021/12/20 09:08:34;;;;;;;6.65;2.00;;;;;;;-6.53;72.98;97488.47;4824858;29;20058;-67
2021/12/20 09:11:00;;;;;;;9.23;2.25;;;;;;;-6.73;73.56;97482.66;4837773;29;20054;-67
2021/12/20 09:13:26;;;;;;;12.07;3.38;;;;;;;-6.61;74.78;97513.44;4838394;29;20073;-68
2021/12/20 09:15:54;;;;;;;9.32;2.33;;;;;;;-6.69;75.62;97457.91;4837713;29;20057;-67
2021/12/20 09:18:21;;;;;;;11.93;2.90;;;;;;;-6.66;76.01;97483.97;4826308;29;20160;-68
2021/12/20 09:20:47;;;;;;;8.35;2.47;;;;;;;-6.78;75.96;97458.50;4840689;29;20058;-67
2021/12/20 09:23:14;;;;;;;9.38;2.75;;;;;;;-6.40;76.38;97510.34;4856403;29;20101;-67
2021/12/20 09:25:45;;;;;;;12.55;2.60;;;;;;;-6.48;74.49;97513.47;4842083;29;20057;-67
2021/12/20 09:28:11;;;;;;;9.73;3.10;;;;;;;-6.34;73.85;97525.75;4841781;29;20058;-67
2021/12/20 09:30:38;;;;;;;10.15;2.92;;;;;;;-6.42;72.58;97525.41;4826044;29;20411;-67
2021/12/20 09:33:05;;;;;;;8.95;2.53;;;;;;;-6.16;71.54;97532.44;4840794;29;20058;-67
2021/12/20 09:35:31;;;;;;;7.43;2.40;;;;;;;-6.19;71.09;97524.75;4841173;29;20156;-68
2021/12/20 09:37:57;;;;;;;9.10;2.53;;;;;;;-6.41;71.20;97508.69;4840247;29;20165;-67
2021/12/20 09:40:37;;;;;;;8.93;2.95;;;;;;;-6.38;70.75;97524.25;4825320;29;20054;-67
2021/12/20 09:43:13;;;;;;;14.30;3.08;;;;;;;-6.13;71.35;97545.38;4855634;29;20062;-67
2021/12/20 09:45:43;;;;;;;10.15;2.78;;;;;;;-6.03;70.17;97545.66;4840697;29;20057;-67
2021/12/20 09:48:09;;;;;;;9.07;2.50;;;;;;;-5.68;70.88;97545.88;4825504;29;20073;-67
2021/12/20 09:50:35;;;;;;;8.80;2.75;;;;;;;-5.73;69.29;97511.16;4840832;29;20050;-67
2021/12/20 09:53:04;;;;;;;9.23;2.70;;;;;;;-6.15;69.50;97528.84;4842039;29;20137;-68
2021/12/20 09:55:31;;;;;;;9.57;2.92;;;;;;;-6.38;71.28;97498.81;4871489;29;20081;-67
2021/12/20 09:57:59;;;;;;;9.73;3.10;;;;;;;-6.44;69.64;97550.94;4871163;29;20454;-67
2021/12/20 10:00:25;;;;;;;8.43;2.63;;;;;;;-6.36;71.45;97549.50;4871123;29;20396;-67
2021/12/20 10:02:53;;;;;;;9.35;2.65;;;;;;;-6.61;72.39;97552.00;4825014;29;20134;-68
2021/12/20 10:05:19;;;;;;;9.57;2.60;;;;;;;-6.56;72.34;97584.91;4855304;29;20427;-67
2021/12/20 10:07:51;;;;;;;10.23;3.15;;;;;;;-6.97;72.84;97573.53;4855501;29;20517;-67
2021/12/20 10:10:35;;;;;;;10.10;3.10;;;;;;;-7.19;73.24;97579.25;4840117;29;20088;-67
2021/12/20 10:13:01;;;;;;;11.70;2.88;;;;;;;-7.31;74.38;97580.81;4855708;29;20530;-67
2021/12/20 10:15:38;;;;;;;7.90;2.55;;;;;;;-7.33;74.81;97564.31;4825166;29;20065;-67
2021/12/20 10:18:12;;;;;;;10.77;2.58;;;;;;;-7.16;73.79;97574.66;4840649;29;20157;-68
2021/12/20 10:20:37;;;;;;;10.68;2.50;;;;;;;-7.09;73.46;97593.50;4855582;29;20430;-67
2021/12/20 10:23:09;;;;;;;11.48;2.35;;;;;;;-7.12;72.56;97591.91;4855490;29;20070;-67
2021/12/20 10:25:35;;;;;;;8.88;2.72;;;;;;;-7.22;72.56;97574.16;4840228;29;20058;-67
2021/12/20 10:28:09;;;;;;;8.40;2.53;;;;;;;-7.15;72.12;97602.59;4854794;29;20419;-67
2021/12/20 10:30:39;;;;;;;8.43;2.10;;;;;;;-7.04;72.82;97605.41;4825151;29;20057;-67
2021/12/20 10:33:10;;;;;;;8.20;2.13;;;;;;;-7.33;71.48;97587.94;4824761;29;20058;-67
2021/12/20 10:35:42;;;;;;;8.10;2.22;;;;;;;-7.24;71.29;97608.38;4871209;29;20065;-68
2021/12/20 10:38:33;;;;;;;8.82;1.95;;;;;;;-7.50;71.73;97580.22;4825199;29;20062;-67
2021/12/20 10:41:14;;;;;;;;;;;;;;;-7.48;72.63;97622.97;4840960;29;20065;-67
2021/12/20 10:43:49;;;;;;;17.25;3.78;;;;;;;-7.69;73.71;97638.16;4840545;29;19924;-67
2021/12/20 10:46:19;;;;;;;7.63;2.15;;;;;;;-7.57;73.47;97638.31;4857356;29;20049;-67
2021/12/20 10:48:49;;;;;;;9.82;2.20;;;;;;;-7.66;74.18;97635.34;4826508;29;20522;-67
2021/12/20 10:51:25;;;;;;;12.77;3.13;;;;;;;-7.95;73.32;97626.53;4840865;29;20065;-67
2021/12/20 10:54:02;;;;;;;9.73;2.17;;;;;;;-7.90;72.75;97629.72;4824600;29;20064;-68
2021/12/20 10:56:34;;;;;;;10.73;1.90;;;;;;;-8.13;73.02;97626.63;4841299;29;20104;-67
2021/12/20 10:59:01;;;;;;;9.65;2.63;;;;;;;-7.97;73.46;97654.59;4839924;29;20086;-67
2021/12/20 11:01:48;;;;;;;7.88;2.22;;;;;;;-8.02;73.96;97626.88;4854482;29;20587;-67
2021/12/20 11:04:22;;;;;;;7.93;2.25;;;;;;;-7.88;72.58;97662.81;4826580;29;20082;-67
2021/12/20 11:09:23;;;;;;;7.72;2.30;;;;;;;-8.03;72.50;97661.88;4840662;29;20159;-67
2021/12/20 11:11:50;;;;;;;9.93;2.40;;;;;;;-7.95;72.60;97673.72;4852184;29;20049;-67
2021/12/20 11:14:19;;;;;;;8.70;2.78;;;;;;;-8.19;73.50;97650.56;4842273;29;20053;-67
2021/12/20 11:16:49;;;;;;;7.97;2.38;;;;;;;-8.33;74.70;97626.91;4827176;29;20065;-67
2021/12/20 11:19:27;;;;;;;9.00;2.28;;;;;;;-8.06;75.38;97683.03;4842539;29;20057;-67
2021/12/20 11:22:01;;;;;;;9.15;2.17;;;;;;;-8.09;75.00;97656.97;4859234;29;20186;-67
2021/12/20 11:24:44;;;;;;;8.35;2.35;;;;;;;-7.98;75.19;97679.97;4859230;29;20088;-67
2021/12/20 11:27:21;;;;;;;9.77;2.45;;;;;;;-7.95;74.19;97692.91;4858998;29;20084;-67
2021/12/20 11:29:49;;;;;;;8.70;2.10;;;;;;;-7.97;75.30;97696.53;4857358;29;20065;-67
2021/12/20 11:32:16;;;;;;;8.98;2.35;;;;;;;-7.99;74.65;97698.41;4857386;29;20069;-67
2021/12/20 11:34:43;;;;;;;8.15;2.47;;;;;;;-8.37;73.37;97657.66;4857410;29;20128;-67
2021/12/20 11:37:13;;;;;;;11.65;3.85;;;;;;;-8.15;74.79;97678.31;4857604;29;20061;-67
2021/12/20 11:39:40;;;;;;;9.60;2.42;;;;;;;-8.29;74.25;97707.03;4841315;29;20281;-68
2021/12/20 11:42:07;;;;;;;9.55;2.38;;;;;;;-8.49;74.46;97684.53;4857325;29;20095;-67
2021/12/20 11:44:36;;;;;;;9.43;3.10;;;;;;;-8.36;74.22;97710.91;4857249;29;20064;-67
2021/12/20 11:47:05;;;;;;;8.30;2.17;;;;;;;-8.26;74.04;97717.34;4856850;29;20089;-68
2021/12/20 11:49:31;;;;;;;8.50;2.65;;;;;;;-8.53;73.45;97717.91;4856702;29;20049;-67
2021/12/20 11:52:05;;;;;;;8.20;2.25;;;;;;;-8.59;72.94;97720.88;4858261;29;20069;-67
2021/12/20 11:54:41;;;;;;;8.23;2.15;;;;;;;-8.54;73.18;97729.31;4856893;29;20069;-67